createdAt,value
2018-08-27T00:02:22.591Z,9.80
2018-08-27T00:04:51.485Z,9.80
2018-08-27T00:07:20.045Z,9.80
2018-08-27T00:09:48.531Z,9.80
2018-08-27T00:12:17.012Z,9.70
2018-08-27T00:14:45.573Z,9.60
2018-08-27T00:17:14.041Z,9.60
2018-08-27T00:19:42.489Z,9.50
2018-08-27T00:22:10.977Z,9.50
2018-08-27T00:24:39.531Z,9.50
2018-08-27T00:27:08.380Z,9.40
2018-08-27T00:29:36.790Z,9.40
2018-08-27T00:32:05.252Z,9.40
2018-08-27T00:34:33.690Z,9.50
2018-08-27T00:37:02.219Z,9.40
2018-08-27T00:39:30.685Z,9.40
2018-08-27T00:41:59.741Z,9.40
2018-08-27T00:44:28.186Z,9.40
2018-08-27T00:46:57.420Z,9.40
2018-08-27T00:49:25.853Z,9.40
2018-08-27T00:51:54.306Z,9.40
2018-08-27T00:54:22.772Z,9.40
2018-08-27T00:56:51.739Z,9.30
2018-08-27T00:59:20.205Z,9.20
2018-08-27T01:01:48.821Z,9.00
2018-08-27T01:04:17.299Z,9.00
2018-08-27T01:06:46.005Z,8.90
2018-08-27T01:09:14.579Z,8.90
2018-08-27T01:11:43.037Z,9.00
2018-08-27T01:14:11.595Z,9.00
2018-08-27T01:16:40.061Z,9.00
2018-08-27T01:19:08.529Z,9.10
2018-08-27T01:21:37.046Z,9.00
2018-08-27T01:24:05.727Z,9.00
2018-08-27T01:26:34.231Z,8.90
2018-08-27T01:29:02.644Z,9.00
2018-08-27T01:31:31.109Z,8.90
2018-08-27T01:33:59.532Z,8.90
2018-08-27T01:36:28.020Z,8.90
2018-08-27T01:38:56.450Z,8.80
2018-08-27T01:41:24.890Z,8.80
2018-08-27T01:43:53.359Z,8.80
2018-08-27T01:46:21.806Z,8.80
2018-08-27T01:48:50.256Z,8.90
2018-08-27T01:51:18.695Z,8.90
2018-08-27T01:53:48.600Z,8.90
2018-08-27T01:56:17.156Z,8.90
2018-08-27T01:58:49.776Z,9.00
2018-08-27T02:01:19.376Z,9.10
2018-08-27T02:03:47.920Z,9.10
2018-08-27T02:06:16.412Z,9.20
2018-08-27T02:08:44.886Z,9.20
2018-08-27T02:11:13.307Z,9.10
2018-08-27T02:13:42.080Z,9.00
2018-08-27T02:16:10.577Z,9.00
2018-08-27T02:18:39.061Z,9.00
2018-08-27T02:21:07.505Z,8.90
2018-08-27T02:23:36.036Z,8.90
2018-08-27T02:26:04.549Z,8.90
2018-08-27T02:28:33.006Z,8.90
2018-08-27T02:31:01.449Z,8.90
2018-08-27T02:33:30.509Z,8.90
2018-08-27T02:35:58.978Z,9.00
2018-08-27T02:38:27.457Z,9.00
2018-08-27T02:40:55.996Z,9.10
2018-08-27T02:43:24.512Z,9.10
2018-08-27T02:45:52.993Z,9.10
2018-08-27T02:48:21.463Z,9.10
2018-08-27T02:50:49.919Z,9.10
2018-08-27T02:53:18.406Z,9.10
2018-08-27T02:55:46.853Z,9.20
2018-08-27T02:58:15.336Z,9.10
2018-08-27T03:00:43.823Z,9.10
2018-08-27T03:03:12.253Z,9.10
2018-08-27T03:05:40.699Z,9.00
2018-08-27T03:08:09.167Z,8.90
2018-08-27T03:10:37.782Z,8.90
2018-08-27T03:13:06.467Z,8.90
2018-08-27T03:15:34.927Z,8.90
2018-08-27T03:18:03.481Z,8.90
2018-08-27T03:20:32.000Z,8.90
2018-08-27T03:23:00.424Z,8.80
2018-08-27T03:25:28.998Z,8.90
2018-08-27T03:27:57.460Z,8.90
2018-08-27T03:30:25.898Z,8.90
2018-08-27T03:32:54.356Z,8.90
2018-08-27T03:35:23.010Z,8.90
2018-08-27T03:37:51.523Z,8.90
2018-08-27T03:40:19.949Z,8.90
2018-08-27T03:42:48.466Z,8.90
2018-08-27T03:45:17.058Z,8.90
2018-08-27T03:47:45.491Z,8.90
2018-08-27T03:50:13.959Z,8.90
2018-08-27T03:52:42.425Z,8.90
2018-08-27T03:55:11.029Z,8.90
2018-08-27T03:57:39.475Z,8.90
2018-08-27T04:00:08.039Z,8.90
2018-08-27T04:02:36.465Z,8.90
2018-08-27T04:05:05.031Z,8.90
2018-08-27T04:07:33.459Z,8.80
2018-08-27T04:10:01.919Z,8.80
2018-08-27T04:12:30.367Z,8.80
2018-08-27T04:14:59.391Z,8.70
2018-08-27T04:17:30.944Z,8.60
2018-08-27T04:20:00.445Z,8.50
2018-08-27T04:22:29.249Z,8.50
2018-08-27T04:24:57.851Z,8.60
2018-08-27T04:27:26.280Z,8.60
2018-08-27T04:29:54.714Z,8.60
2018-08-27T04:32:23.911Z,8.50
2018-08-27T04:34:52.667Z,8.60
2018-08-27T04:37:21.918Z,8.60
2018-08-27T04:39:50.613Z,8.60
2018-08-27T04:42:19.066Z,8.60
2018-08-27T04:44:47.546Z,8.60
2018-08-27T04:47:15.983Z,8.70
2018-08-27T04:49:44.492Z,8.70
2018-08-27T04:52:12.934Z,8.70
2018-08-27T04:54:41.568Z,8.70
2018-08-27T04:57:10.094Z,8.80
2018-08-27T04:59:43.375Z,8.80
2018-08-27T05:02:11.806Z,8.90
2018-08-27T05:04:40.294Z,9.00
2018-08-27T05:07:08.716Z,9.10
2018-08-27T05:09:37.823Z,9.20
2018-08-27T05:12:06.327Z,9.30
2018-08-27T05:14:34.770Z,9.40
2018-08-27T05:17:03.334Z,9.50
2018-08-27T05:19:31.881Z,9.50
2018-08-27T05:22:00.404Z,9.60
2018-08-27T05:24:28.877Z,9.70
2018-08-27T05:26:57.355Z,9.90
2018-08-27T05:29:25.863Z,10.00
2018-08-27T05:31:54.337Z,10.10
2018-08-27T05:34:22.857Z,10.20
2018-08-27T05:36:51.438Z,10.50
2018-08-27T05:39:19.881Z,10.70
2018-08-27T05:41:48.389Z,11.10
2018-08-27T05:44:16.880Z,11.30
2018-08-27T05:46:45.361Z,11.50
2018-08-27T05:49:13.911Z,11.60
2018-08-27T05:51:42.366Z,11.70
2018-08-27T05:54:10.830Z,11.80
2018-08-27T05:56:39.284Z,11.90
2018-08-27T05:59:07.968Z,12.00
2018-08-27T06:01:36.489Z,12.20
2018-08-27T06:04:04.982Z,12.30
2018-08-27T06:06:33.454Z,12.30
2018-08-27T06:09:01.932Z,12.30
2018-08-27T06:11:30.472Z,12.50
2018-08-27T06:13:58.965Z,12.50
2018-08-27T06:16:27.462Z,12.60
2018-08-27T06:18:56.010Z,12.70
2018-08-27T06:21:24.469Z,12.70
2018-08-27T06:23:52.924Z,12.70
2018-08-27T06:26:21.396Z,12.80
2018-08-27T06:28:49.854Z,12.90
2018-08-27T06:31:18.508Z,13.00
2018-08-27T06:33:47.079Z,13.20
2018-08-27T06:36:15.537Z,13.20
2018-08-27T06:38:44.005Z,13.30
2018-08-27T06:41:12.531Z,13.50
2018-08-27T06:43:41.100Z,13.60
2018-08-27T06:46:09.953Z,13.70
2018-08-27T06:48:38.695Z,13.90
2018-08-27T06:51:07.175Z,14.00
2018-08-27T06:53:35.795Z,14.20
2018-08-27T06:56:04.416Z,14.30
2018-08-27T06:58:32.864Z,14.50
2018-08-27T07:01:01.324Z,14.70
2018-08-27T07:03:29.805Z,14.90
2018-08-27T07:05:58.259Z,15.00
2018-08-27T07:08:26.722Z,14.90
2018-08-27T07:10:55.187Z,14.90
2018-08-27T07:13:23.667Z,15.10
2018-08-27T07:15:52.253Z,15.20
2018-08-27T07:18:20.823Z,15.40
2018-08-27T07:20:49.284Z,15.60
2018-08-27T07:23:17.760Z,15.80
2018-08-27T07:25:46.241Z,15.90
2018-08-27T07:28:14.790Z,16.00
2018-08-27T07:30:43.378Z,16.10
2018-08-27T07:33:11.897Z,16.30
2018-08-27T07:35:40.669Z,16.40
2018-08-27T07:38:09.074Z,16.60
2018-08-27T07:40:37.566Z,16.80
2018-08-27T07:43:06.094Z,17.00
2018-08-27T07:45:35.099Z,17.00
2018-08-27T07:48:03.621Z,17.20
2018-08-27T07:50:32.134Z,17.30
2018-08-27T07:53:00.693Z,17.60
2018-08-27T07:55:29.174Z,17.70
2018-08-27T07:57:57.657Z,17.70
2018-08-27T08:00:26.296Z,17.80
2018-08-27T08:02:55.642Z,17.90
2018-08-27T08:05:24.145Z,18.10
2018-08-27T08:07:52.647Z,18.30
2018-08-27T08:10:21.593Z,18.40
2018-08-27T08:12:51.821Z,18.40
2018-08-27T08:15:20.811Z,18.40
2018-08-27T08:17:49.809Z,18.60
2018-08-27T08:20:18.584Z,18.60
2018-08-27T08:22:47.218Z,18.80
2018-08-27T08:25:15.816Z,18.70
2018-08-27T08:27:44.344Z,18.80
2018-08-27T08:30:12.785Z,18.90
2018-08-27T08:32:41.269Z,19.00
2018-08-27T08:35:09.780Z,19.40
2018-08-27T08:37:38.242Z,19.60
2018-08-27T08:40:06.814Z,19.70
2018-08-27T08:42:35.242Z,19.80
2018-08-27T08:45:04.289Z,19.90
2018-08-27T08:47:32.791Z,20.00
2018-08-27T08:50:01.264Z,20.20
2018-08-27T08:52:29.724Z,20.30
2018-08-27T08:54:58.161Z,20.60
2018-08-27T08:57:26.771Z,20.80
2018-08-27T08:59:55.301Z,20.80
2018-08-27T09:02:23.794Z,20.80
2018-08-27T09:04:52.230Z,20.90
2018-08-27T09:07:20.691Z,21.10
2018-08-27T09:09:49.158Z,21.20
2018-08-27T09:12:17.729Z,21.40
2018-08-27T09:14:46.200Z,21.50
2018-08-27T09:17:14.796Z,21.60
2018-08-27T09:19:43.239Z,21.70
2018-08-27T09:22:11.743Z,21.70
2018-08-27T09:24:40.191Z,21.70
2018-08-27T09:27:08.666Z,21.80
2018-08-27T09:29:37.237Z,21.90
2018-08-27T09:32:05.784Z,21.90
2018-08-27T09:34:34.258Z,22.00
2018-08-27T09:37:02.793Z,22.10
2018-08-27T09:39:31.280Z,22.20
2018-08-27T09:41:59.778Z,22.20
2018-08-27T09:44:28.270Z,22.30
2018-08-27T09:46:56.987Z,22.40
2018-08-27T09:49:25.407Z,22.60
2018-08-27T09:51:53.892Z,22.70
2018-08-27T09:54:22.364Z,22.80
2018-08-27T09:56:50.834Z,23.00
2018-08-27T09:59:19.341Z,23.10
2018-08-27T10:01:53.297Z,23.30
2018-08-27T10:04:21.785Z,23.30
2018-08-27T10:06:50.227Z,23.50
2018-08-27T10:09:18.680Z,23.50
2018-08-27T10:11:47.165Z,23.50
2018-08-27T10:14:15.660Z,23.40
2018-08-27T10:16:44.189Z,23.40
2018-08-27T10:19:12.782Z,23.50
2018-08-27T10:21:41.475Z,23.50
2018-08-27T10:24:09.914Z,23.60
2018-08-27T10:26:38.428Z,23.50
2018-08-27T10:29:06.965Z,23.60
2018-08-27T10:31:36.043Z,23.70
2018-08-27T10:34:04.536Z,23.70
2018-08-27T10:36:33.012Z,23.60
2018-08-27T10:39:02.450Z,23.60
2018-08-27T10:41:31.825Z,23.70
2018-08-27T10:44:00.413Z,23.90
2018-08-27T10:46:28.956Z,23.90
2018-08-27T10:48:57.420Z,23.90
2018-08-27T10:51:25.930Z,24.20
2018-08-27T10:53:54.406Z,24.40
2018-08-27T10:56:22.829Z,24.50
2018-08-27T10:58:51.323Z,24.60
2018-08-27T11:01:20.942Z,24.80
2018-08-27T11:03:49.389Z,24.90
2018-08-27T11:06:17.924Z,24.80
2018-08-27T11:08:46.526Z,24.80
2018-08-27T11:11:15.007Z,24.90
2018-08-27T11:13:43.523Z,25.10
2018-08-27T11:16:12.031Z,25.10
2018-08-27T11:18:40.512Z,25.30
2018-08-27T11:21:08.961Z,25.30
2018-08-27T11:23:37.531Z,25.00
2018-08-27T11:26:06.177Z,24.90
2018-08-27T11:28:34.663Z,24.80
2018-08-27T11:31:03.238Z,24.80
2018-08-27T11:33:31.800Z,24.70
2018-08-27T11:36:00.868Z,24.70
2018-08-27T11:38:29.325Z,24.90
2018-08-27T11:40:57.777Z,25.20
2018-08-27T11:43:26.326Z,25.30
2018-08-27T11:45:54.767Z,25.50
2018-08-27T11:48:23.268Z,25.40
2018-08-27T11:50:51.915Z,25.50
2018-08-27T11:53:20.323Z,25.60
2018-08-27T11:55:48.779Z,25.70
2018-08-27T11:58:17.272Z,25.80
2018-08-27T12:00:51.130Z,25.80
2018-08-27T12:03:19.613Z,25.80
2018-08-27T12:05:48.089Z,25.70
2018-08-27T12:08:16.551Z,25.80
2018-08-27T12:10:45.209Z,25.70
2018-08-27T12:13:13.694Z,25.30
2018-08-27T12:15:42.251Z,25.30
2018-08-27T12:18:10.753Z,25.30
2018-08-27T12:20:39.216Z,25.30
2018-08-27T12:23:08.326Z,25.20
2018-08-27T12:25:36.797Z,25.40
2018-08-27T12:28:05.414Z,25.70
2018-08-27T12:30:33.913Z,25.70
2018-08-27T12:33:02.401Z,25.70
2018-08-27T12:35:30.882Z,25.60
2018-08-27T12:37:59.388Z,25.50
2018-08-27T12:40:27.899Z,25.50
2018-08-27T12:42:56.377Z,25.60
2018-08-27T12:45:24.876Z,25.40
2018-08-27T12:47:53.443Z,25.30
2018-08-27T12:50:22.057Z,25.40
2018-08-27T12:52:50.525Z,25.70
2018-08-27T12:55:18.961Z,25.70
2018-08-27T12:57:47.445Z,25.80
2018-08-27T13:00:16.761Z,26.00
2018-08-27T13:02:46.558Z,26.20
2018-08-27T13:05:14.954Z,26.40
2018-08-27T13:07:44.388Z,26.50
2018-08-27T13:10:13.005Z,26.50
2018-08-27T13:12:41.564Z,26.50
2018-08-27T13:15:10.075Z,26.50
2018-08-27T13:17:38.682Z,26.50
2018-08-27T13:20:07.088Z,26.70
2018-08-27T13:22:35.663Z,26.80
2018-08-27T13:25:04.706Z,26.40
2018-08-27T13:27:33.659Z,26.30
2018-08-27T13:30:02.340Z,26.30
2018-08-27T13:32:30.795Z,26.20
2018-08-27T13:34:59.304Z,26.20
2018-08-27T13:37:27.668Z,26.20
2018-08-27T13:39:56.277Z,26.20
2018-08-27T13:42:24.752Z,26.10
2018-08-27T13:44:53.230Z,26.10
2018-08-27T13:47:21.715Z,26.00
2018-08-27T13:49:50.083Z,26.10
2018-08-27T13:52:18.578Z,26.10
2018-08-27T13:54:47.053Z,26.00
2018-08-27T13:57:15.569Z,25.90
2018-08-27T13:59:44.006Z,25.90
2018-08-27T14:02:12.497Z,25.80
2018-08-27T14:04:41.049Z,25.70
2018-08-27T14:07:09.526Z,25.60
2018-08-27T14:09:38.039Z,25.50
2018-08-27T14:12:06.800Z,25.50
2018-08-27T14:14:35.420Z,25.40
2018-08-27T14:17:04.133Z,25.30
2018-08-27T14:19:32.651Z,25.20
2018-08-27T14:22:01.123Z,25.10
2018-08-27T14:24:29.539Z,25.20
2018-08-27T14:26:58.037Z,25.20
2018-08-27T14:29:26.607Z,25.10
2018-08-27T14:31:55.088Z,25.10
2018-08-27T14:34:23.561Z,25.10
2018-08-27T14:36:51.988Z,25.10
2018-08-27T14:39:20.494Z,25.00
2018-08-27T14:41:49.631Z,25.00
2018-08-27T14:44:18.039Z,24.90
2018-08-27T14:46:46.627Z,24.60
2018-08-27T14:49:15.142Z,24.50
2018-08-27T14:51:43.554Z,24.50
2018-08-27T14:54:12.053Z,24.50
2018-08-27T14:56:40.466Z,24.60
2018-08-27T14:59:08.883Z,24.60
2018-08-27T15:01:37.371Z,24.70
2018-08-27T15:04:06.130Z,24.70
2018-08-27T15:06:34.629Z,24.70
2018-08-27T15:09:03.285Z,24.70
2018-08-27T15:11:31.804Z,24.70
2018-08-27T15:14:00.405Z,24.80
2018-08-27T15:16:28.904Z,24.80
2018-08-27T15:18:57.377Z,24.70
2018-08-27T15:21:25.886Z,24.70
2018-08-27T15:23:54.390Z,24.70
2018-08-27T15:26:22.931Z,24.70
2018-08-27T15:28:51.386Z,24.70
2018-08-27T15:31:19.866Z,24.60
2018-08-27T15:33:48.421Z,24.50
2018-08-27T15:36:16.927Z,24.50
2018-08-27T15:38:45.515Z,24.40
2018-08-27T15:41:13.967Z,24.30
2018-08-27T15:43:42.524Z,24.40
2018-08-27T15:46:44.324Z,24.40
2018-08-27T15:49:13.257Z,24.20
2018-08-27T15:51:42.341Z,24.20
2018-08-27T15:54:11.678Z,24.30
2018-08-27T15:56:41.046Z,24.30
2018-08-27T15:59:09.557Z,24.40
2018-08-27T16:01:38.063Z,24.30
2018-08-27T16:04:06.611Z,24.30
2018-08-27T16:06:35.110Z,24.30
2018-08-27T16:09:05.039Z,24.30
2018-08-27T16:11:33.500Z,24.20
2018-08-27T16:14:02.001Z,24.20
2018-08-27T16:16:30.505Z,24.10
2018-08-27T16:18:58.978Z,24.10
2018-08-27T16:21:27.495Z,24.10
2018-08-27T16:23:56.083Z,24.00
2018-08-27T16:26:24.550Z,24.00
2018-08-27T16:28:53.035Z,24.00
2018-08-27T16:31:21.625Z,24.00
2018-08-27T16:33:50.188Z,23.90
2018-08-27T16:36:18.675Z,23.90
2018-08-27T16:38:47.181Z,23.90
2018-08-27T16:41:15.722Z,23.90
2018-08-27T16:43:44.215Z,23.90
2018-08-27T16:46:12.704Z,23.90
2018-08-27T16:48:41.168Z,23.80
2018-08-27T16:51:09.641Z,23.80
2018-08-27T16:53:38.113Z,23.70
2018-08-27T16:56:06.599Z,23.70
2018-08-27T16:58:35.162Z,23.70
2018-08-27T17:01:03.607Z,23.70
2018-08-27T17:03:32.076Z,23.60
2018-08-27T17:06:00.646Z,23.50
2018-08-27T17:08:29.481Z,23.40
2018-08-27T17:10:58.059Z,23.40
2018-08-27T17:13:26.542Z,23.30
2018-08-27T17:15:55.061Z,23.30
2018-08-27T17:18:23.640Z,23.20
2018-08-27T17:20:52.189Z,23.10
2018-08-27T17:23:20.752Z,23.10
2018-08-27T17:25:49.412Z,23.00
2018-08-27T17:28:17.881Z,22.90
2018-08-27T17:30:46.479Z,22.80
2018-08-27T17:33:14.976Z,22.70
2018-08-27T17:35:44.253Z,22.70
2018-08-27T17:38:12.786Z,22.70
2018-08-27T17:40:41.306Z,22.60
2018-08-27T17:43:09.789Z,22.60
2018-08-27T17:45:38.357Z,22.50
2018-08-27T17:48:06.854Z,22.50
2018-08-27T17:50:35.389Z,22.40
2018-08-27T17:53:03.989Z,22.40
2018-08-27T17:55:32.506Z,22.30
2018-08-27T17:58:01.040Z,22.30
2018-08-27T18:00:29.840Z,22.20
2018-08-27T18:02:59.438Z,22.10
2018-08-27T18:05:27.940Z,22.00
2018-08-27T18:07:56.453Z,21.90
2018-08-27T18:10:25.008Z,21.90
2018-08-27T18:12:53.608Z,21.80
2018-08-27T18:15:22.800Z,21.80
2018-08-27T18:17:51.582Z,21.70
2018-08-27T18:20:20.308Z,21.70
2018-08-27T18:22:49.399Z,21.70
2018-08-27T18:25:18.825Z,21.70
2018-08-27T18:27:47.426Z,21.60
2018-08-27T18:30:16.104Z,21.50
2018-08-27T18:32:44.686Z,21.50
2018-08-27T18:35:13.297Z,21.40
2018-08-27T18:37:41.876Z,21.40
2018-08-27T18:40:10.570Z,21.40
2018-08-27T18:42:39.556Z,21.40
2018-08-27T18:45:08.342Z,21.20
2018-08-27T18:47:37.168Z,21.20
2018-08-27T18:50:06.035Z,21.10
2018-08-27T18:52:34.758Z,21.10
2018-08-27T18:55:03.541Z,21.00
2018-08-27T18:57:33.205Z,21.00
2018-08-27T19:00:02.050Z,21.00
2018-08-27T19:02:30.635Z,21.00
2018-08-27T19:04:59.324Z,21.00
2018-08-27T19:07:28.424Z,21.00
2018-08-27T19:09:57.308Z,21.00
2018-08-27T19:12:25.966Z,20.90
2018-08-27T19:14:54.722Z,20.90
2018-08-27T19:17:23.263Z,20.90
2018-08-27T19:19:52.211Z,20.90
2018-08-27T19:22:20.959Z,20.90
2018-08-27T19:24:49.774Z,20.90
2018-08-27T19:27:18.436Z,20.90
2018-08-27T19:29:47.033Z,20.90
2018-08-27T19:32:15.837Z,20.90
2018-08-27T19:34:44.632Z,20.80
2018-08-27T19:37:13.276Z,20.70
2018-08-27T19:39:41.872Z,20.70
2018-08-27T19:42:10.547Z,20.60
2018-08-27T19:44:39.161Z,20.50
2018-08-27T19:47:07.830Z,20.50
2018-08-27T19:49:37.195Z,20.50
2018-08-27T19:52:05.773Z,20.50
2018-08-27T19:54:34.386Z,20.50
2018-08-27T19:57:02.900Z,20.40
2018-08-27T19:59:31.403Z,20.40
2018-08-27T20:01:59.944Z,20.40
2018-08-27T20:04:28.427Z,20.40
2018-08-27T20:06:57.525Z,20.30
2018-08-27T20:09:26.061Z,20.30
2018-08-27T20:11:54.732Z,20.20
2018-08-27T20:14:23.417Z,20.20
2018-08-27T20:16:51.978Z,20.20
2018-08-27T20:19:20.811Z,20.20
2018-08-27T20:21:49.327Z,20.20
2018-08-27T20:24:18.171Z,20.20
2018-08-27T20:26:46.902Z,20.20
2018-08-27T20:29:15.595Z,20.10
2018-08-27T20:31:44.158Z,20.10
2018-08-27T20:34:13.473Z,20.10
2018-08-27T20:36:42.823Z,20.10
2018-08-27T20:39:12.620Z,20.00
2018-08-27T20:41:41.238Z,20.00
2018-08-27T20:44:10.082Z,20.00
2018-08-27T20:46:38.874Z,20.00
2018-08-27T20:49:07.747Z,20.00
2018-08-27T20:51:36.496Z,20.00
2018-08-27T20:54:06.077Z,20.00
2018-08-27T20:56:34.722Z,19.90
2018-08-27T20:59:07.093Z,19.80
2018-08-27T21:01:36.214Z,19.80
2018-08-27T21:04:04.873Z,19.70
2018-08-27T21:06:33.413Z,19.70
2018-08-27T21:09:02.102Z,19.70
2018-08-27T21:11:31.154Z,19.60
2018-08-27T21:14:10.366Z,19.50
2018-08-27T21:16:38.971Z,19.50
2018-08-27T21:19:07.547Z,19.50
2018-08-27T21:21:36.098Z,19.40
2018-08-27T21:24:04.585Z,19.40
2018-08-27T21:26:33.074Z,19.40
2018-08-27T21:29:02.057Z,19.40
2018-08-27T21:31:30.531Z,19.40
2018-08-27T21:33:59.242Z,19.30
2018-08-27T21:36:27.761Z,19.30
2018-08-27T21:38:56.490Z,19.20
2018-08-27T21:41:25.526Z,19.20
2018-08-27T21:43:54.265Z,19.10
2018-08-27T21:46:22.774Z,19.10
2018-08-27T21:48:51.224Z,19.00
2018-08-27T21:51:19.726Z,19.00
2018-08-27T21:53:48.209Z,19.00
2018-08-27T21:56:16.696Z,19.00
2018-08-27T21:58:45.167Z,18.90
2018-08-27T22:01:13.668Z,18.90
2018-08-27T22:03:47.588Z,18.80
2018-08-27T22:06:16.172Z,18.80
2018-08-27T22:08:44.737Z,18.80
2018-08-27T22:11:13.263Z,18.80
2018-08-27T22:13:41.712Z,18.80
2018-08-27T22:16:10.190Z,18.80
2018-08-27T22:18:38.630Z,18.80
2018-08-27T22:21:07.184Z,18.80
2018-08-27T22:23:35.676Z,18.80
2018-08-27T22:26:04.187Z,18.80
2018-08-27T22:28:32.678Z,18.80
2018-08-27T22:31:01.162Z,18.80
2018-08-27T22:33:29.636Z,18.80
2018-08-27T22:35:58.096Z,18.80
2018-08-27T22:38:26.992Z,18.80
2018-08-27T22:40:55.502Z,18.70
2018-08-27T22:43:23.998Z,18.70
2018-08-27T22:45:52.458Z,18.70
2018-08-27T22:48:20.946Z,18.70
2018-08-27T22:50:49.440Z,18.70
2018-08-27T22:53:17.940Z,18.70
2018-08-27T22:55:46.393Z,18.70
2018-08-27T22:58:14.937Z,18.70
2018-08-27T23:00:43.387Z,18.70
2018-08-27T23:03:17.181Z,18.70
2018-08-27T23:05:45.699Z,18.70
2018-08-27T23:08:14.171Z,18.70
2018-08-27T23:10:42.691Z,18.70
2018-08-27T23:13:11.143Z,18.70
2018-08-27T23:15:39.682Z,18.70
2018-08-27T23:18:08.135Z,18.70
2018-08-27T23:20:36.705Z,18.70
2018-08-27T23:23:05.181Z,18.70
2018-08-27T23:25:33.669Z,18.70
2018-08-27T23:28:02.136Z,18.70
2018-08-27T23:30:30.592Z,18.70
2018-08-27T23:32:59.058Z,18.70
2018-08-27T23:35:27.627Z,18.60
2018-08-27T23:37:56.102Z,18.60
2018-08-27T23:40:24.651Z,18.60
2018-08-27T23:42:53.092Z,18.60
2018-08-27T23:45:21.643Z,18.70
2018-08-27T23:47:50.154Z,18.70
2018-08-27T23:50:18.594Z,18.70
2018-08-27T23:52:47.217Z,18.70
2018-08-27T23:55:15.668Z,18.70
2018-08-27T23:57:44.254Z,18.70
